createdAt,value
2023-03-16T06:03:07.660Z,29.14
2023-03-16T06:04:08.559Z,28.39
2023-03-16T06:05:08.504Z,28.25
2023-03-16T06:06:08.547Z,28.17
2023-03-16T06:07:08.575Z,28.13
2023-03-16T06:08:07.609Z,28.08
2023-03-16T06:09:08.648Z,28.06
2023-03-16T06:10:08.672Z,28.05
2023-03-16T06:11:08.670Z,28.03
2023-03-16T06:12:08.725Z,28.00
2023-03-16T06:13:08.734Z,27.99
2023-03-16T06:14:08.768Z,27.97
2023-03-16T06:15:08.849Z,27.99
2023-03-16T06:16:09.074Z,27.95
2023-03-16T06:17:07.954Z,27.94
2023-03-16T06:18:09.043Z,27.93
2023-03-16T06:19:09.072Z,27.93
2023-03-16T06:20:08.132Z,27.92
2023-03-16T06:21:09.190Z,27.92
2023-03-16T06:22:09.349Z,27.90
2023-03-16T06:23:09.295Z,27.89
2023-03-16T06:24:09.319Z,27.90
2023-03-16T06:25:09.360Z,27.89
2023-03-16T06:26:09.426Z,27.89
2023-03-16T06:27:09.481Z,27.88
2023-03-16T06:28:09.484Z,27.87
2023-03-16T06:29:09.568Z,27.88
2023-03-16T06:30:09.592Z,27.87
2023-03-16T06:31:09.680Z,27.86
2023-03-16T06:32:09.690Z,27.86
2023-03-16T06:33:09.817Z,27.87
2023-03-16T06:34:09.795Z,27.88
2023-03-16T06:35:09.858Z,27.87
2023-03-16T06:36:09.931Z,27.87
2023-03-16T06:37:08.888Z,27.88
2023-03-16T06:38:09.924Z,27.90
2023-03-16T06:39:09.950Z,27.91
2023-03-16T06:40:10.023Z,27.90
2023-03-16T06:41:10.062Z,27.89
2023-03-16T06:42:09.099Z,27.87
2023-03-16T06:43:09.129Z,27.88
2023-03-16T06:44:10.173Z,27.91
2023-03-16T06:45:10.202Z,27.90
2023-03-16T06:46:10.283Z,27.90
2023-03-16T06:47:10.305Z,27.91
2023-03-16T06:48:10.299Z,27.92
2023-03-16T06:49:10.336Z,27.91
2023-03-16T06:50:10.389Z,27.91
2023-03-16T06:51:10.422Z,27.91
2023-03-16T06:52:09.446Z,27.90
2023-03-16T06:53:09.528Z,27.91
2023-03-16T06:54:10.522Z,27.92
2023-03-16T06:55:10.560Z,27.92
2023-03-16T06:56:09.613Z,27.90
2023-03-16T06:57:10.734Z,27.93
2023-03-16T06:58:10.806Z,27.91
2023-03-16T06:59:09.704Z,27.91
2023-03-16T07:00:10.721Z,27.88
2023-03-16T07:01:10.898Z,27.89
2023-03-16T07:02:09.808Z,28.27
2023-03-16T07:03:11.016Z,28.12
2023-03-16T07:04:10.040Z,28.36
2023-03-16T07:05:10.969Z,28.60
2023-03-16T07:06:11.032Z,29.04
2023-03-16T07:07:11.030Z,29.15
2023-03-16T07:08:11.062Z,29.51
2023-03-16T07:09:11.094Z,29.58
2023-03-16T07:10:11.145Z,29.67
2023-03-16T07:11:10.133Z,29.98
2023-03-16T07:12:10.162Z,29.99
2023-03-16T07:13:11.199Z,30.06
2023-03-16T07:14:11.220Z,30.16
2023-03-16T07:15:11.257Z,30.14
2023-03-16T07:16:11.300Z,30.25
2023-03-16T07:17:10.285Z,29.96
2023-03-16T07:18:11.290Z,29.90
2023-03-16T07:19:10.303Z,29.66
2023-03-16T07:20:10.365Z,30.15
2023-03-16T07:21:10.370Z,30.08
2023-03-16T07:22:10.415Z,30.41
2023-03-16T07:23:11.406Z,30.55
2023-03-16T07:24:10.448Z,30.47
2023-03-16T07:25:11.586Z,30.66
2023-03-16T07:26:11.426Z,30.82
2023-03-16T07:27:12.584Z,30.94
2023-03-16T07:28:10.436Z,30.92
2023-03-16T07:29:10.438Z,30.72
2023-03-16T07:30:11.450Z,31.12
2023-03-16T07:31:11.427Z,30.84
2023-03-16T07:32:11.590Z,30.92
2023-03-16T07:33:11.541Z,30.90
2023-03-16T07:34:11.442Z,31.44
2023-03-16T07:35:11.518Z,31.57
2023-03-16T07:36:10.537Z,31.99
2023-03-16T07:37:10.443Z,31.88
2023-03-16T07:38:11.468Z,31.83
2023-03-16T07:39:11.444Z,32.00
2023-03-16T07:40:10.436Z,32.28
2023-03-16T07:41:11.454Z,31.90
2023-03-16T07:42:11.437Z,32.73
2023-03-16T07:43:10.447Z,32.24
2023-03-16T07:44:10.436Z,32.81
2023-03-16T07:45:11.454Z,33.29
2023-03-16T07:46:10.543Z,32.98
2023-03-16T07:47:10.476Z,33.11
2023-03-16T07:48:11.477Z,33.15
2023-03-16T07:49:11.520Z,33.04
2023-03-16T07:50:10.513Z,33.00
2023-03-16T07:51:11.635Z,33.06
2023-03-16T07:52:11.581Z,32.29
2023-03-16T07:53:11.510Z,32.29
2023-03-16T07:54:10.941Z,32.22
2023-03-16T07:55:11.519Z,32.01
2023-03-16T07:56:11.515Z,32.25
2023-03-16T07:57:10.517Z,32.10
2023-03-16T07:58:11.541Z,32.02
2023-03-16T07:59:11.523Z,32.00
2023-03-16T08:00:11.511Z,31.92
2023-03-16T08:01:11.521Z,31.78
2023-03-16T08:02:10.574Z,31.81
2023-03-16T08:03:11.532Z,31.80
2023-03-16T08:04:11.517Z,31.72
2023-03-16T08:05:11.607Z,31.70
2023-03-16T08:06:11.519Z,31.72
2023-03-16T08:07:11.529Z,31.79
2023-03-16T08:08:11.546Z,31.63
2023-03-16T08:09:10.553Z,31.69
2023-03-16T08:10:11.601Z,31.63
2023-03-16T08:11:11.582Z,31.64
2023-03-16T08:12:10.596Z,31.60
2023-03-16T08:13:11.623Z,31.65
2023-03-16T08:14:11.622Z,31.58
2023-03-16T08:15:11.646Z,31.67
2023-03-16T08:16:11.673Z,31.55
2023-03-16T08:17:11.693Z,31.53
2023-03-16T08:18:11.709Z,31.50
2023-03-16T08:19:11.713Z,31.57
2023-03-16T08:20:11.719Z,31.55
2023-03-16T08:21:11.735Z,31.42
2023-03-16T08:22:11.760Z,31.47
2023-03-16T08:23:11.794Z,31.48
2023-03-16T08:24:10.800Z,31.37
2023-03-16T08:25:11.825Z,31.39
2023-03-16T08:26:11.867Z,31.43
2023-03-16T08:27:11.860Z,31.34
2023-03-16T08:28:11.880Z,31.34
2023-03-16T08:29:11.914Z,31.38
2023-03-16T08:30:11.989Z,31.33
2023-03-16T08:31:11.959Z,31.32
2023-03-16T08:32:11.966Z,31.28
2023-03-16T08:33:12.095Z,31.26
2023-03-16T08:34:11.997Z,31.27
2023-03-16T08:35:12.020Z,31.27
2023-03-16T08:36:12.169Z,31.25
2023-03-16T08:37:12.070Z,31.27
2023-03-16T08:38:12.086Z,31.23
2023-03-16T08:39:12.261Z,31.22
2023-03-16T08:40:12.144Z,31.29
2023-03-16T08:41:11.162Z,31.23
2023-03-16T08:42:12.215Z,31.20
2023-03-16T08:43:12.207Z,31.20
2023-03-16T08:44:12.231Z,31.21
2023-03-16T08:45:14.000Z,31.20
2023-03-16T08:46:12.259Z,31.15
2023-03-16T08:47:12.286Z,31.19
2023-03-16T08:48:12.555Z,31.14
2023-03-16T08:49:12.238Z,31.10
2023-03-16T08:50:12.231Z,31.17
2023-03-16T08:51:11.220Z,31.11
2023-03-16T08:52:12.206Z,31.12
2023-03-16T08:53:12.221Z,31.10
2023-03-16T08:54:12.202Z,31.06
2023-03-16T08:55:12.183Z,31.04
2023-03-16T08:56:12.176Z,31.08
2023-03-16T08:57:12.168Z,31.06
2023-03-16T08:58:12.356Z,30.99
2023-03-16T08:59:27.071Z,31.03
2023-03-16T09:00:12.161Z,31.01
2023-03-16T09:01:12.150Z,31.01
2023-03-16T09:02:12.197Z,31.00
2023-03-16T09:03:12.152Z,30.99
2023-03-16T09:04:12.143Z,30.99
2023-03-16T09:05:12.125Z,30.97
2023-03-16T09:06:12.132Z,30.93
2023-03-16T09:07:11.179Z,30.94
2023-03-16T09:08:12.100Z,30.92
2023-03-16T09:09:11.096Z,30.94
2023-03-16T09:10:12.082Z,30.93
2023-03-16T09:11:12.071Z,30.93
2023-03-16T09:12:12.067Z,30.93
2023-03-16T09:13:12.083Z,30.89
2023-03-16T09:14:11.089Z,30.88
2023-03-16T09:15:12.091Z,30.86
2023-03-16T09:16:12.160Z,30.84
2023-03-16T09:17:12.097Z,30.83
2023-03-16T09:18:12.075Z,30.82
2023-03-16T09:19:12.119Z,30.83
2023-03-16T09:20:21.866Z,30.82
2023-03-16T09:21:12.119Z,30.80
2023-03-16T09:22:12.116Z,30.80
2023-03-16T09:23:12.118Z,30.79
2023-03-16T09:24:11.113Z,30.76
2023-03-16T09:25:12.092Z,30.78
2023-03-16T09:26:12.085Z,30.74
2023-03-16T09:27:13.204Z,30.74
2023-03-16T09:28:12.078Z,30.72
2023-03-16T09:29:12.062Z,30.80
2023-03-16T09:30:12.090Z,30.83
2023-03-16T09:31:12.181Z,30.81
2023-03-16T09:32:12.040Z,30.84
2023-03-16T09:33:11.123Z,30.81
2023-03-16T09:34:12.035Z,30.74
2023-03-16T09:35:11.043Z,30.77
2023-03-16T09:36:12.134Z,30.72
2023-03-16T09:37:12.084Z,30.63
2023-03-16T09:38:12.144Z,30.63
2023-03-16T09:39:12.159Z,30.61
2023-03-16T09:40:12.276Z,30.63
2023-03-16T09:41:11.223Z,30.65
2023-03-16T09:42:11.250Z,30.68
2023-03-16T09:43:12.582Z,30.74
2023-03-16T09:44:12.308Z,30.75
2023-03-16T09:45:11.353Z,30.75
2023-03-16T09:46:11.451Z,30.80
2023-03-16T09:47:12.403Z,30.76
2023-03-16T09:48:12.441Z,30.77
2023-03-16T09:49:12.473Z,30.76
2023-03-16T09:50:12.564Z,30.67
2023-03-16T09:51:12.602Z,30.66
2023-03-16T09:52:12.544Z,30.61
2023-03-16T09:53:11.573Z,30.61
2023-03-16T09:54:12.596Z,30.58
2023-03-16T09:55:12.648Z,30.58
2023-03-16T09:56:12.669Z,30.59
2023-03-16T09:57:12.701Z,30.54
2023-03-16T09:58:12.082Z,30.45
2023-03-16T09:59:12.770Z,30.41
2023-03-16T10:00:12.796Z,30.35
2023-03-16T10:01:12.874Z,30.33
2023-03-16T10:02:12.900Z,30.31
2023-03-16T10:03:12.920Z,30.39
2023-03-16T10:04:12.961Z,30.38
2023-03-16T10:05:12.994Z,30.33
2023-03-16T10:06:13.027Z,30.31
2023-03-16T10:07:13.061Z,30.30
2023-03-16T10:08:12.199Z,30.22
2023-03-16T10:09:13.150Z,30.04
2023-03-16T10:10:12.188Z,29.46
2023-03-16T10:11:13.245Z,29.21
2023-03-16T10:12:13.313Z,28.65
2023-03-16T10:13:12.388Z,27.40
2023-03-16T10:14:13.417Z,26.52
2023-03-16T10:15:13.452Z,26.13
2023-03-16T10:16:13.438Z,25.91
2023-03-16T10:17:12.411Z,26.00
2023-03-16T10:18:13.564Z,25.55
2023-03-16T10:19:12.435Z,24.76
2023-03-16T10:20:13.464Z,23.90
2023-03-16T10:21:13.484Z,23.46
2023-03-16T10:22:13.507Z,23.77
2023-03-16T10:23:13.554Z,23.50
2023-03-16T10:24:13.653Z,23.54
2023-03-16T10:25:13.640Z,23.57
2023-03-16T10:26:13.696Z,23.92
2023-03-16T10:27:13.745Z,23.77
2023-03-16T10:28:13.792Z,23.72
2023-03-16T10:29:12.865Z,23.25
2023-03-16T10:30:13.906Z,23.68
2023-03-16T10:31:14.032Z,23.59
2023-03-16T10:32:14.004Z,23.82
2023-03-16T10:33:14.162Z,24.17
2023-03-16T10:34:13.113Z,23.49
2023-03-16T10:35:13.137Z,23.39
2023-03-16T10:36:14.261Z,23.35
2023-03-16T10:37:14.231Z,22.43
2023-03-16T10:38:14.060Z,21.66
2023-03-16T10:39:14.333Z,22.03
2023-03-16T10:40:14.451Z,22.31
2023-03-16T10:41:14.461Z,22.07
2023-03-16T10:42:14.506Z,22.13
2023-03-16T10:43:14.603Z,22.62
2023-03-16T10:45:13.698Z,22.33
2023-03-16T10:46:15.266Z,21.74
2023-03-16T10:47:14.916Z,22.11
2023-03-16T10:48:15.110Z,23.23
2023-03-16T10:49:14.944Z,23.36
2023-03-16T10:50:14.968Z,23.65
2023-03-16T10:51:15.014Z,23.56
2023-03-16T10:52:15.065Z,23.26
2023-03-16T11:34:15.917Z,23.43
2023-03-16T11:35:15.959Z,23.38
2023-03-16T11:36:16.054Z,23.38
2023-03-16T11:37:16.064Z,23.28
2023-03-16T11:38:16.072Z,23.26
2023-03-16T11:39:15.083Z,23.17
2023-03-16T11:40:16.129Z,23.00
2023-03-16T11:41:15.161Z,22.38
2023-03-16T11:42:15.218Z,21.88
2023-03-16T11:43:15.255Z,21.43
2023-03-16T11:44:15.300Z,21.30
2023-03-16T11:45:16.372Z,21.57
2023-03-16T11:46:16.458Z,21.66
2023-03-16T11:47:16.488Z,22.25
2023-03-16T11:48:16.655Z,22.63
2023-03-16T11:49:16.154Z,22.30
2023-03-16T11:50:15.693Z,22.24
2023-03-16T11:51:16.709Z,22.50
2023-03-16T11:52:16.758Z,22.31
2023-03-16T11:53:16.857Z,21.78
2023-03-16T11:54:16.860Z,21.50
2023-03-16T11:55:16.930Z,21.54
2023-03-16T11:56:16.990Z,21.50
2023-03-16T11:57:17.038Z,21.36
2023-03-16T11:58:16.102Z,21.62
2023-03-16T11:59:17.159Z,21.66
2023-03-16T12:00:16.326Z,21.67
2023-03-16T12:01:17.280Z,21.90
2023-03-16T12:02:17.483Z,22.07
2023-03-16T12:03:17.453Z,22.08
2023-03-16T12:04:17.532Z,22.03
2023-03-16T12:05:17.515Z,22.07
2023-03-16T12:06:23.059Z,22.10
2023-03-16T12:07:17.550Z,22.06
2023-03-16T12:23:17.501Z,22.34
2023-03-16T12:24:17.426Z,22.38
2023-03-16T12:25:17.468Z,22.46
2023-03-16T12:26:16.417Z,22.24
2023-03-16T12:27:17.566Z,22.09
2023-03-16T12:28:17.399Z,22.05
2023-03-16T12:29:17.404Z,22.20
2023-03-16T12:30:17.398Z,22.44
2023-03-16T12:31:17.412Z,22.67
2023-03-16T12:32:16.386Z,22.74
2023-03-16T12:33:17.374Z,22.79
2023-03-16T12:34:17.373Z,22.97
2023-03-16T12:35:17.360Z,23.08
2023-03-16T12:36:17.358Z,22.89
2023-03-16T12:37:17.353Z,23.17
2023-03-16T12:38:17.348Z,22.94
2023-03-16T12:39:16.648Z,23.12
2023-03-16T12:40:17.324Z,23.07
2023-03-16T12:41:18.110Z,23.16
2023-03-16T12:42:17.306Z,23.13
2023-03-16T12:43:17.372Z,23.54
2023-03-16T12:44:17.306Z,23.94
2023-03-16T12:45:17.290Z,23.83
2023-03-16T12:46:17.398Z,24.92
2023-03-16T12:47:17.312Z,24.13
2023-03-16T12:48:17.304Z,23.57
2023-03-16T12:49:16.290Z,23.84
2023-03-16T12:50:17.267Z,23.69
2023-03-16T12:51:17.253Z,23.56
2023-03-16T12:52:17.243Z,23.95
2023-03-16T12:53:17.252Z,23.59
2023-03-16T12:54:16.300Z,23.11
2023-03-16T12:55:17.306Z,22.87
2023-03-16T12:56:17.359Z,22.45
2023-03-16T12:57:16.425Z,22.28
2023-03-16T12:58:16.424Z,22.52
2023-03-16T12:59:17.476Z,23.43
2023-03-16T13:00:17.552Z,22.73
2023-03-16T13:01:17.600Z,23.08
2023-03-16T13:02:16.599Z,22.99
2023-03-16T13:03:17.649Z,23.10
2023-03-16T13:04:17.729Z,22.98
2023-03-16T13:05:17.782Z,23.10
2023-03-16T13:06:17.766Z,23.06
2023-03-16T13:07:17.806Z,23.02
2023-03-16T13:08:17.862Z,23.09
2023-03-16T13:09:17.887Z,23.11
2023-03-16T13:10:17.946Z,23.32
2023-03-16T13:11:17.961Z,23.31
2023-03-16T13:12:16.989Z,23.30
2023-03-16T13:13:17.049Z,22.98
2023-03-16T13:14:18.076Z,22.92
2023-03-16T13:15:18.113Z,22.69
2023-03-16T13:16:17.165Z,22.86
2023-03-16T13:17:18.297Z,22.73
2023-03-16T13:18:18.236Z,21.81
2023-03-16T13:19:18.303Z,22.34
2023-03-16T13:20:29.464Z,22.57
2023-03-16T13:21:18.316Z,22.85
2023-03-16T13:22:18.325Z,22.88
2023-03-16T13:23:18.418Z,22.83
2023-03-16T13:24:18.319Z,22.88
2023-03-16T13:25:17.304Z,22.82
2023-03-16T13:26:18.347Z,22.91
2023-03-16T13:27:18.273Z,22.94
2023-03-16T13:28:18.265Z,22.63
2023-03-16T13:29:18.305Z,22.31
2023-03-16T13:30:18.371Z,22.67
2023-03-16T13:31:17.280Z,22.80
2023-03-16T13:32:18.249Z,23.27
2023-03-16T13:33:18.251Z,23.01
2023-03-16T13:34:18.234Z,22.84
2023-03-16T13:35:18.230Z,22.94
2023-03-16T13:36:18.284Z,22.61
2023-03-16T13:37:18.286Z,22.33
2023-03-16T13:38:18.332Z,21.87
2023-03-16T13:39:18.357Z,22.51
2023-03-16T13:40:18.402Z,21.99
2023-03-16T13:41:18.446Z,22.63
2023-03-16T13:42:17.461Z,22.09
2023-03-16T13:43:17.479Z,22.55
2023-03-16T13:44:18.528Z,22.55
2023-03-16T13:45:18.550Z,22.80
2023-03-16T13:46:18.602Z,22.63
2023-03-16T13:47:20.206Z,22.58
2023-03-16T13:48:17.542Z,22.76
2023-03-16T13:49:18.539Z,22.88
2023-03-16T13:50:18.525Z,22.98
2023-03-16T13:51:18.577Z,22.90
2023-03-16T13:52:18.523Z,23.16
2023-03-16T13:53:18.517Z,23.20
2023-03-16T13:54:18.558Z,22.94
2023-03-16T13:55:18.519Z,22.84
2023-03-16T13:56:18.496Z,23.10
2023-03-16T13:57:18.478Z,22.90
2023-03-16T13:58:18.484Z,23.11
2023-03-16T13:59:18.476Z,23.20
2023-03-16T14:00:17.462Z,23.17
2023-03-16T14:01:17.536Z,22.96
2023-03-16T14:02:18.561Z,22.56
2023-03-16T14:03:18.464Z,22.80
2023-03-16T14:04:17.470Z,23.05
2023-03-16T14:05:18.426Z,23.02
2023-03-16T14:06:18.429Z,22.75
2023-03-16T14:07:18.410Z,23.01
2023-03-16T14:08:17.402Z,23.07
2023-03-16T14:09:17.409Z,22.81
2023-03-16T14:10:18.404Z,22.80
2023-03-16T14:11:18.385Z,22.39
2023-03-16T14:12:18.407Z,22.42
2023-03-16T14:13:17.400Z,22.51
2023-03-16T14:14:18.532Z,22.81
2023-03-16T14:15:17.367Z,22.74
2023-03-16T14:16:18.516Z,22.24
2023-03-16T14:17:18.386Z,21.80
2023-03-16T14:18:18.359Z,22.23
2023-03-16T14:19:17.368Z,22.40
2023-03-16T14:20:18.343Z,22.63
2023-03-16T14:21:18.354Z,22.83
2023-03-16T14:22:18.347Z,22.57
2023-03-16T14:23:18.332Z,22.85
2023-03-16T14:24:18.329Z,22.74
2023-03-16T14:25:18.352Z,22.88
2023-03-16T14:26:18.319Z,22.83
2023-03-16T14:27:18.291Z,23.07
2023-03-16T14:28:18.303Z,23.02
2023-03-16T14:29:18.287Z,23.10
2023-03-16T14:30:18.293Z,23.24
2023-03-16T14:31:18.355Z,23.35
2023-03-16T14:32:17.277Z,23.41
2023-03-16T14:33:18.291Z,23.50
2023-03-16T14:34:18.265Z,23.58
2023-03-16T14:35:18.267Z,23.65
2023-03-16T14:36:17.324Z,23.76
2023-03-16T14:37:18.242Z,23.87
2023-03-16T14:38:17.236Z,23.90
2023-03-16T14:39:17.256Z,23.95
2023-03-16T14:40:17.302Z,23.99
2023-03-16T14:41:18.357Z,24.02
2023-03-16T14:42:18.486Z,24.08
2023-03-16T14:43:18.504Z,24.17
2023-03-16T14:44:17.577Z,24.21
2023-03-16T14:45:18.625Z,24.24
2023-03-16T14:46:17.770Z,24.27
2023-03-16T14:47:17.739Z,24.32
2023-03-16T14:48:18.796Z,24.40
2023-03-16T14:49:18.901Z,24.40
2023-03-16T14:50:18.945Z,24.41
2023-03-16T14:51:18.996Z,24.45
2023-03-16T14:52:19.091Z,24.46
2023-03-16T14:53:18.121Z,24.51
2023-03-16T14:54:19.207Z,24.51
2023-03-16T14:55:19.260Z,24.55
2023-03-16T14:56:19.311Z,24.55
2023-03-16T14:57:19.363Z,24.56
2023-03-16T14:58:19.457Z,24.59
2023-03-16T14:59:19.482Z,24.64
2023-03-16T15:00:19.531Z,24.64
2023-03-16T15:01:19.759Z,24.64
2023-03-16T15:02:19.686Z,24.64
2023-03-16T15:03:18.669Z,24.60
2023-03-16T15:04:18.709Z,24.68
2023-03-16T15:05:19.762Z,24.64
2023-03-16T15:06:19.728Z,24.67
2023-03-16T15:07:19.754Z,24.66
2023-03-16T15:08:19.778Z,24.67
2023-03-16T15:09:18.784Z,24.66
2023-03-16T15:10:19.773Z,24.66
2023-03-16T15:11:19.776Z,24.65
2023-03-16T15:12:19.847Z,24.64
2023-03-16T15:13:19.780Z,24.58
2023-03-16T15:14:19.778Z,24.58
2023-03-16T15:15:19.784Z,24.61
2023-03-16T15:16:19.866Z,24.53
2023-03-16T15:17:19.779Z,24.49
2023-03-16T15:18:19.768Z,24.35
2023-03-16T15:19:19.786Z,24.25
2023-03-16T15:20:19.787Z,24.32
2023-03-16T15:21:19.847Z,24.32
2023-03-16T15:22:19.785Z,24.28
2023-03-16T15:23:19.793Z,24.36
2023-03-16T15:24:19.802Z,24.29
2023-03-16T15:25:19.817Z,24.19
2023-03-16T15:26:19.815Z,24.26
2023-03-16T15:27:19.805Z,24.31
2023-03-16T15:28:19.835Z,24.26
2023-03-16T15:29:19.837Z,24.20
2023-03-16T15:30:18.820Z,24.15
2023-03-16T15:31:19.848Z,24.14
2023-03-16T15:32:19.827Z,24.10
2023-03-16T15:33:19.834Z,24.11
2023-03-16T15:34:19.815Z,24.14
2023-03-16T15:35:19.951Z,24.13
2023-03-16T15:36:19.851Z,24.13
2023-03-16T15:37:19.850Z,24.00
2023-03-16T15:38:19.810Z,24.12
2023-03-16T15:39:19.817Z,24.13
2023-03-16T15:40:19.824Z,24.01
2023-03-16T15:41:19.827Z,24.10
2023-03-16T15:42:19.826Z,24.11
2023-03-16T15:43:19.821Z,24.12
2023-03-16T15:44:19.822Z,24.18
2023-03-16T15:45:19.816Z,24.23
2023-03-16T15:46:19.824Z,24.24
2023-03-16T15:47:19.821Z,24.25
2023-03-16T15:48:19.814Z,24.38
2023-03-16T15:49:19.816Z,24.36
2023-03-16T15:50:19.828Z,24.39
2023-03-16T15:51:19.825Z,24.37
2023-03-16T15:52:18.828Z,24.38
2023-03-16T15:53:30.010Z,24.35
2023-03-16T15:54:19.823Z,24.41
2023-03-16T15:55:19.803Z,24.45
2023-03-16T15:56:19.817Z,24.45
2023-03-16T15:57:19.796Z,24.53
2023-03-16T15:58:18.795Z,24.58
2023-03-16T15:59:18.785Z,24.64
2023-03-16T16:00:18.769Z,24.72
2023-03-16T16:01:19.892Z,24.75
2023-03-16T16:02:19.753Z,24.78
2023-03-16T16:03:19.964Z,24.81
2023-03-16T16:04:20.127Z,24.84
2023-03-16T16:05:19.748Z,24.89
2023-03-16T16:06:19.737Z,24.91
2023-03-16T16:07:19.723Z,24.90
2023-03-16T16:08:19.726Z,24.95
2023-03-16T16:09:19.766Z,24.95
2023-03-16T16:10:19.711Z,24.97
2023-03-16T16:11:19.693Z,24.97
2023-03-16T16:12:19.697Z,24.99
2023-03-16T16:13:19.690Z,25.00
2023-03-16T16:14:18.674Z,25.01
2023-03-16T16:15:19.731Z,25.01
2023-03-16T16:16:19.831Z,25.04
2023-03-16T16:17:22.597Z,25.04
2023-03-16T16:18:21.794Z,25.03
2023-03-16T16:19:18.653Z,25.02
2023-03-16T16:20:19.638Z,25.00
2023-03-16T16:21:19.654Z,25.00
2023-03-16T16:22:18.639Z,25.01
2023-03-16T16:23:18.620Z,25.06
2023-03-16T16:24:18.699Z,25.19
2023-03-16T16:25:19.629Z,25.24
2023-03-16T16:26:18.620Z,25.41
2023-03-16T16:27:19.594Z,25.37
2023-03-16T16:28:19.612Z,25.55
2023-03-16T16:29:19.576Z,25.71
